Time;durP1;ratioP1;P1;durP2;ratioP2;P2;SDS_P1;SDS_P2;PMS_P1;PMS_P2;Temp;Humidity;BMP_temperature;BMP_pressure;BME280_temperature;BME280_humidity;BME280_pressure;Samples;Min_cycle;Max_cycle;Signal;HPM_P1;HPM_P2
2023/09/09 00:01:08;;;;;;;12.07;7.00;;;20.90;61.30;;;;;;5076446;28;20039;-71
2023/09/09 00:03:37;;;;;;;11.50;7.38;;;20.90;61.30;;;;;;5076459;28;20032;-71
2023/09/09 00:06:12;;;;;;;11.18;6.75;;;20.90;61.30;;;;;;5076285;28;20032;-71
2023/09/09 00:08:39;;;;;;;9.73;6.55;;;20.90;61.30;;;;;;5076056;28;20044;-72
2023/09/09 00:11:05;;;;;;;13.80;6.22;;;20.90;61.40;;;;;;5076296;28;20032;-71
2023/09/09 00:13:31;;;;;;;8.40;5.82;;;20.80;61.40;;;;;;5076679;28;20032;-71
2023/09/09 00:15:57;;;;;;;8.20;5.82;;;20.80;61.50;;;;;;5076467;28;20100;-71
2023/09/09 00:18:23;;;;;;;7.85;5.65;;;20.80;61.50;;;;;;5076295;28;20054;-72
2023/09/09 00:20:49;;;;;;;8.48;5.40;;;20.80;61.60;;;;;;5076074;28;20020;-71
2023/09/09 00:23:17;;;;;;;8.32;5.60;;;20.70;61.60;;;;;;5075995;28;20024;-71
2023/09/09 00:25:44;;;;;;;8.77;5.35;;;20.70;61.60;;;;;;5075943;28;20035;-71
2023/09/09 00:28:11;;;;;;;8.25;5.45;;;20.70;61.60;;;;;;5076115;28;20033;-71
2023/09/09 00:30:38;;;;;;;7.63;4.75;;;20.70;61.70;;;;;;5076200;28;20051;-70
2023/09/09 00:33:04;;;;;;;7.65;5.10;;;20.70;61.80;;;;;;5076042;28;20036;-71
2023/09/09 00:35:32;;;;;;;13.60;6.40;;;20.60;61.90;;;;;;5075255;28;20040;-70
2023/09/09 00:37:58;;;;;;;12.00;7.10;;;20.60;62.20;;;;;;5075615;28;20060;-71
2023/09/09 00:40:25;;;;;;;12.05;7.55;;;20.50;62.30;;;;;;5075703;28;20025;-71
2023/09/09 00:42:51;;;;;;;14.02;8.10;;;20.40;62.50;;;;;;5075669;28;20104;-70
2023/09/09 00:45:17;;;;;;;12.55;7.68;;;20.40;62.40;;;;;;5075937;28;20418;-72
2023/09/09 00:47:44;;;;;;;12.52;7.55;;;20.40;62.50;;;;;;5076082;28;20437;-70
2023/09/09 00:50:12;;;;;;;11.23;7.30;;;20.40;62.50;;;;;;5075582;28;20028;-72
2023/09/09 00:52:42;;;;;;;13.27;7.40;;;20.40;62.60;;;;;;5075411;28;20145;-70
2023/09/09 00:55:10;;;;;;;11.50;7.15;;;20.40;62.60;;;;;;5076054;28;20101;-72
2023/09/09 00:57:36;;;;;;;10.60;7.13;;;20.40;62.50;;;;;;5075621;28;20032;-72
2023/09/09 01:00:09;;;;;;;10.23;6.20;;;20.40;62.50;;;;;;5057961;28;20016;-72
2023/09/09 01:02:41;;;;;;;12.57;6.80;;;20.40;62.80;;;;;;5075378;28;20081;-71
2023/09/09 01:05:09;;;;;;;9.90;6.05;;;20.40;62.90;;;;;;5075381;28;20081;-72
2023/09/09 01:07:42;;;;;;;9.18;6.25;;;20.40;62.70;;;;;;5075162;28;20072;-70
2023/09/09 01:10:09;;;;;;;9.35;5.78;;;20.40;62.70;;;;;;5075273;28;20489;-70
2023/09/09 01:12:35;;;;;;;11.82;6.80;;;20.40;62.70;;;;;;5075452;28;20040;-71
2023/09/09 01:15:01;;;;;;;10.07;6.43;;;20.40;62.70;;;;;;5075794;28;20032;-72
2023/09/09 01:17:27;;;;;;;12.75;6.53;;;20.40;62.80;;;;;;5075157;28;20020;-71
2023/09/09 01:19:59;;;;;;;11.27;6.55;;;20.40;63.00;;;;;;5075184;28;20021;-70
2023/09/09 01:22:25;;;;;;;9.02;5.53;;;20.40;62.80;;;;;;5058190;28;20035;-70
2023/09/09 01:24:51;;;;;;;12.45;6.35;;;20.40;62.80;;;;;;5075181;28;20469;-71
2023/09/09 01:27:17;;;;;;;7.65;5.90;;;20.40;62.60;;;;;;5075392;28;20024;-71
2023/09/09 01:29:43;;;;;;;9.60;6.00;;;20.40;62.60;;;;;;5075110;28;20032;-70
2023/09/09 01:32:09;;;;;;;8.77;5.68;;;20.40;62.60;;;;;;5075125;28;20020;-71
2023/09/09 01:34:35;;;;;;;7.70;5.15;;;20.40;62.90;;;;;;5058232;28;20396;-71
2023/09/09 01:37:00;;;;;;;8.10;5.13;;;20.40;62.80;;;;;;5075268;28;20434;-71
2023/09/09 01:39:32;;;;;;;9.73;5.30;;;20.40;62.80;;;;;;5075014;28;20028;-70
2023/09/09 01:41:59;;;;;;;7.30;5.10;;;20.30;62.80;;;;;;5074918;28;20404;-72
2023/09/09 01:44:28;;;;;;;9.75;6.00;;;20.30;63.00;;;;;;5074958;28;20082;-71
2023/09/09 01:46:58;;;;;;;8.93;5.57;;;20.30;63.10;;;;;;5075882;28;20044;-71
2023/09/09 01:49:24;;;;;;;9.45;5.93;;;20.30;63.30;;;;;;5078969;28;20025;-71
2023/09/09 01:51:50;;;;;;;8.40;5.43;;;20.20;63.20;;;;;;5078912;28;20029;-71
2023/09/09 01:54:15;;;;;;;8.20;5.68;;;20.30;63.20;;;;;;5078802;28;20029;-71
2023/09/09 01:56:42;;;;;;;9.45;5.93;;;20.20;63.10;;;;;;5079004;28;20461;-71
2023/09/09 01:59:08;;;;;;;6.82;5.05;;;20.20;63.10;;;;;;5079022;28;20093;-70
2023/09/09 02:01:34;;;;;;;7.05;5.07;;;20.20;63.10;;;;;;5078742;28;20016;-71
2023/09/09 02:04:00;;;;;;;7.13;5.32;;;20.20;63.00;;;;;;5078657;28;20033;-70
2023/09/09 02:06:42;;;;;;;6.88;5.00;;;20.20;63.10;;;;;;5078526;28;20032;-71
2023/09/09 02:09:08;;;;;;;6.50;4.70;;;20.20;63.30;;;;;;5078291;28;20130;-71
2023/09/09 02:11:34;;;;;;;7.35;5.03;;;20.20;63.20;;;;;;5078760;28;20054;-70
2023/09/09 02:14:00;;;;;;;7.85;5.57;;;20.20;63.40;;;;;;5078677;28;20028;-70
2023/09/09 02:16:26;;;;;;;8.40;5.35;;;20.10;63.40;;;;;;5078626;28;20017;-70
2023/09/09 02:18:52;;;;;;;6.55;5.00;;;20.00;63.50;;;;;;5078950;28;20024;-71
2023/09/09 02:21:18;;;;;;;8.13;5.30;;;20.00;63.70;;;;;;5078872;28;20021;-72
2023/09/09 02:23:44;;;;;;;7.35;5.50;;;20.00;63.80;;;;;;5078832;28;20025;-71
2023/09/09 02:26:10;;;;;;;7.75;5.25;;;20.00;63.90;;;;;;5078278;28;20028;-72
2023/09/09 02:28:36;;;;;;;7.18;5.18;;;19.90;64.10;;;;;;5078406;28;20032;-71
2023/09/09 02:31:02;;;;;;;7.35;5.10;;;19.90;64.50;;;;;;5078199;28;20036;-70
2023/09/09 02:33:28;;;;;;;12.40;6.05;;;19.90;64.50;;;;;;5078624;28;20099;-71
2023/09/09 02:35:54;;;;;;;8.20;5.63;;;19.90;64.50;;;;;;5078382;28;20100;-71
2023/09/09 02:38:20;;;;;;;8.75;5.53;;;19.80;64.60;;;;;;5078091;28;20423;-70
2023/09/09 02:40:46;;;;;;;10.02;5.40;;;19.70;64.70;;;;;;5078247;28;20338;-71
2023/09/09 02:43:12;;;;;;;9.70;5.47;;;19.70;64.90;;;;;;5078217;28;20030;-70
2023/09/09 02:45:39;;;;;;;8.43;5.60;;;19.60;65.00;;;;;;5078420;28;20078;-70
2023/09/09 02:48:05;;;;;;;7.57;5.40;;;19.60;65.20;;;;;;5077811;28;20020;-71
2023/09/09 02:50:36;;;;;;;9.25;6.32;;;19.50;65.40;;;;;;5078092;28;20457;-70
2023/09/09 02:53:02;;;;;;;6.95;5.38;;;19.50;65.30;;;;;;5078208;28;20028;-71
2023/09/09 02:55:28;;;;;;;8.80;6.35;;;19.50;65.60;;;;;;5078341;28;20016;-71
2023/09/09 02:57:54;;;;;;;11.10;6.55;;;19.50;65.60;;;;;;5077119;28;20449;-71
2023/09/09 03:00:21;;;;;;;8.63;6.10;;;19.50;65.30;;;;;;5060106;28;20036;-71
2023/09/09 03:02:49;;;;;;;9.13;6.05;;;19.40;65.40;;;;;;5077867;28;20033;-70
2023/09/09 03:05:15;;;;;;;7.95;5.45;;;19.40;65.40;;;;;;5077526;28;20021;-70
2023/09/09 03:07:45;;;;;;;8.07;5.93;;;19.40;65.40;;;;;;5056229;28;20479;-71
2023/09/09 03:10:11;;;;;;;8.13;5.53;;;19.40;65.60;;;;;;5057466;28;20028;-70
2023/09/09 03:12:37;;;;;;;7.75;5.53;;;19.40;65.50;;;;;;5057371;28;20029;-70
2023/09/09 03:15:05;;;;;;;8.68;6.07;;;19.40;65.50;;;;;;5057367;28;20080;-71
2023/09/09 03:17:32;;;;;;;8.13;5.47;;;19.40;65.40;;;;;;5057456;28;20028;-71
2023/09/09 03:20:04;;;;;;;8.05;5.47;;;19.40;65.50;;;;;;5057848;28;20343;-71
2023/09/09 03:22:31;;;;;;;7.45;5.72;;;19.40;65.60;;;;;;5057528;28;20029;-70
2023/09/09 03:24:58;;;;;;;7.65;5.60;;;19.40;65.80;;;;;;5057194;28;20477;-71
2023/09/09 03:27:24;;;;;;;7.20;5.15;;;19.40;65.80;;;;;;5057417;28;20021;-70
2023/09/09 03:29:50;;;;;;;8.00;5.55;;;19.40;65.80;;;;;;5057381;28;20099;-71
2023/09/09 03:32:21;;;;;;;6.65;5.25;;;19.40;65.70;;;;;;5057517;28;20427;-71
2023/09/09 03:34:47;;;;;;;8.60;5.25;;;19.40;65.70;;;;;;5056966;28;20021;-71
2023/09/09 03:37:13;;;;;;;7.63;5.20;;;19.30;65.80;;;;;;5056929;28;20352;-71
2023/09/09 03:39:39;;;;;;;7.60;5.22;;;19.40;65.90;;;;;;5057191;28;20021;-71
2023/09/09 03:42:05;;;;;;;7.47;5.43;;;19.30;65.90;;;;;;5056880;28;20036;-71
2023/09/09 03:44:31;;;;;;;7.80;5.60;;;19.40;65.90;;;;;;5056846;28;20017;-71
2023/09/09 03:46:57;;;;;;;7.65;5.35;;;19.40;66.00;;;;;;5057151;28;20051;-71
2023/09/09 03:49:23;;;;;;;7.72;5.28;;;19.30;66.10;;;;;;5057267;28;20051;-72
2023/09/09 03:51:50;;;;;;;6.88;5.07;;;19.30;66.20;;;;;;5057246;28;20431;-71
2023/09/09 03:54:16;;;;;;;7.68;5.55;;;19.20;66.20;;;;;;5056562;28;20024;-71
2023/09/09 03:56:42;;;;;;;8.93;6.00;;;19.10;66.50;;;;;;5056482;28;20466;-70
2023/09/09 03:59:08;;;;;;;7.85;5.65;;;19.10;66.90;;;;;;5056558;28;20490;-71
2023/09/09 04:01:36;;;;;;;7.40;5.38;;;19.10;66.90;;;;;;5056500;28;20108;-72
2023/09/09 04:04:02;;;;;;;9.05;5.40;;;19.10;66.80;;;;;;5056393;28;20037;-70
2023/09/09 04:06:28;;;;;;;7.30;5.25;;;19.10;66.90;;;;;;5055393;28;20128;-71
2023/09/09 04:08:58;;;;;;;7.13;5.43;;;19.10;66.90;;;;;;5070770;28;20128;-71
2023/09/09 04:11:24;;;;;;;7.55;5.57;;;19.10;66.90;;;;;;5076143;28;20037;-72
2023/09/09 04:13:50;;;;;;;8.13;5.38;;;19.20;66.70;;;;;;5076147;28;20020;-70
2023/09/09 04:16:17;;;;;;;8.38;5.72;;;19.20;66.70;;;;;;5076144;28;20024;-71
2023/09/09 04:18:43;;;;;;;7.90;5.30;;;19.20;66.70;;;;;;5076557;28;20138;-70
2023/09/09 04:21:09;;;;;;;9.48;6.10;;;19.30;66.70;;;;;;5076649;28;20032;-71
2023/09/09 04:23:35;;;;;;;9.50;6.13;;;19.20;66.70;;;;;;5076024;28;20024;-70
2023/09/09 04:26:01;;;;;;;11.15;6.00;;;19.30;66.60;;;;;;5076224;28;20032;-71
2023/09/09 04:28:27;;;;;;;8.30;5.70;;;19.20;66.60;;;;;;5075897;28;20354;-70
2023/09/09 04:30:53;;;;;;;7.35;5.60;;;19.20;66.70;;;;;;5075823;28;20366;-70
2023/09/09 04:33:19;;;;;;;7.90;5.63;;;19.20;66.70;;;;;;5076321;28;20035;-70
2023/09/09 04:35:45;;;;;;;9.70;6.28;;;19.20;66.80;;;;;;5075836;28;20029;-70
2023/09/09 04:38:11;;;;;;;7.85;5.38;;;19.20;66.80;;;;;;5075716;28;20112;-72
2023/09/09 04:40:40;;;;;;;13.57;6.32;;;19.20;66.80;;;;;;5075740;28;20099;-70
2023/09/09 04:43:07;;;;;;;9.43;5.90;;;19.20;66.90;;;;;;5075651;28;20100;-68
2023/09/09 04:45:34;;;;;;;11.68;6.95;;;19.20;66.90;;;;;;5076113;28;20035;-68
2023/09/09 04:48:00;;;;;;;8.07;5.63;;;19.20;66.80;;;;;;5057878;28;20064;-67
2023/09/09 04:50:26;;;;;;;8.68;6.20;;;19.20;66.80;;;;;;5075433;28;20059;-66
2023/09/09 04:52:52;;;;;;;8.15;5.43;;;19.20;66.90;;;;;;5075371;28;20438;-66
2023/09/09 04:55:18;;;;;;;8.73;5.43;;;19.20;66.90;;;;;;5075952;28;20031;-65
2023/09/09 04:57:44;;;;;;;8.57;5.32;;;19.20;67.00;;;;;;5057630;28;20025;-67
2023/09/09 05:00:10;;;;;;;8.57;5.70;;;19.20;67.00;;;;;;5075931;28;20433;-66
2023/09/09 05:02:40;;;;;;;8.13;5.57;;;19.40;67.10;;;;;;5075597;28;20213;-68
2023/09/09 05:05:07;;;;;;;8.15;5.55;;;19.70;66.70;;;;;;5075583;28;20024;-68
2023/09/09 05:07:34;;;;;;;7.85;5.70;;;20.10;66.10;;;;;;5075005;28;20481;-66
2023/09/09 05:10:04;;;;;;;9.20;5.70;;;20.50;65.70;;;;;;5075568;28;20446;-68
2023/09/09 05:12:31;;;;;;;8.35;5.80;;;21.10;64.70;;;;;;5075166;28;20028;-68
2023/09/09 05:14:57;;;;;;;7.38;5.63;;;21.60;63.80;;;;;;5040989;28;20020;-68
2023/09/09 05:17:23;;;;;;;7.75;5.43;;;22.20;62.70;;;;;;5075118;28;20427;-66
2023/09/09 05:19:49;;;;;;;7.22;5.15;;;22.90;61.60;;;;;;5075099;28;20033;-67
2023/09/09 05:22:16;;;;;;;8.15;5.40;;;23.50;60.20;;;;;;5074970;28;20393;-68
2023/09/09 05:24:42;;;;;;;7.57;5.35;;;24.20;58.70;;;;;;5075035;28;20083;-69
2023/09/09 05:27:10;;;;;;;7.63;5.03;;;24.90;57.20;;;;;;5075298;28;20028;-67
2023/09/09 05:29:36;;;;;;;9.57;5.35;;;25.60;55.80;;;;;;5075101;28;20034;-68
2023/09/09 05:32:02;;;;;;;7.53;5.50;;;26.40;54.40;;;;;;5075537;28;20029;-69
2023/09/09 05:34:28;;;;;;;7.82;5.57;;;27.10;53.10;;;;;;5075241;28;20029;-67
2023/09/09 05:36:54;;;;;;;7.25;5.63;;;27.90;51.90;;;;;;5075191;28;20096;-68
2023/09/09 05:39:19;;;;;;;8.77;5.85;;;28.60;50.50;;;;;;5074984;28;20451;-69
2023/09/09 05:41:45;;;;;;;10.60;5.65;;;29.30;49.30;;;;;;5075450;28;20059;-69
2023/09/09 05:44:14;;;;;;;7.72;5.70;;;29.90;48.10;;;;;;5075417;28;20079;-68
2023/09/09 05:46:41;;;;;;;7.00;5.45;;;30.60;47.10;;;;;;5074745;28;20048;-69
2023/09/09 05:49:07;;;;;;;6.53;5.15;;;31.30;46.10;;;;;;5074838;28;20370;-69
2023/09/09 05:51:33;;;;;;;8.43;5.57;;;32.10;45.20;;;;;;5057195;28;20021;-69
2023/09/09 05:54:00;;;;;;;7.78;5.53;;;32.90;44.00;;;;;;5074982;28;20036;-69
2023/09/09 05:56:26;;;;;;;8.02;5.25;;;33.60;42.90;;;;;;5074628;28;20488;-68
2023/09/09 05:58:53;;;;;;;18.92;6.50;;;34.40;41.70;;;;;;5074790;28;20441;-68
2023/09/09 06:01:19;;;;;;;8.60;5.47;;;35.10;40.70;;;;;;5074764;28;20129;-68
2023/09/09 06:03:45;;;;;;;7.32;5.68;;;35.80;39.80;;;;;;5074553;28;20488;-71
2023/09/09 06:06:11;;;;;;;8.32;5.60;;;36.40;39.00;;;;;;5074407;28;20047;-68
2023/09/09 06:08:37;;;;;;;9.48;5.25;;;37.10;38.10;;;;;;5074239;28;20052;-71
2023/09/09 06:11:04;;;;;;;7.45;4.97;;;37.70;37.20;;;;;;5074763;28;20031;-72
2023/09/09 06:13:30;;;;;;;7.88;5.40;;;38.30;36.60;;;;;;5074473;28;20028;-71
2023/09/09 06:15:56;;;;;;;7.35;4.82;;;38.90;35.40;;;;;;5074448;28;20064;-67
2023/09/09 06:18:22;;;;;;;7.03;5.25;;;39.40;35.00;;;;;;5074406;28;20358;-67
2023/09/09 06:20:49;;;;;;;6.95;4.70;;;40.00;34.40;;;;;;5074887;28;20028;-66
2023/09/09 06:23:15;;;;;;;8.30;4.55;;;40.60;33.50;;;;;;5074344;28;20492;-69
2023/09/09 06:25:41;;;;;;;7.55;5.13;;;41.30;32.70;;;;;;5074441;28;20036;-69
2023/09/09 06:28:07;;;;;;;6.80;4.80;;;41.90;31.90;;;;;;5074266;28;20111;-70
2023/09/09 06:30:34;;;;;;;6.38;4.40;;;42.50;31.00;;;;;;5074543;28;20032;-69
2023/09/09 06:33:02;;;;;;;11.77;4.75;;;42.90;30.60;;;;;;5075126;28;20071;-69
2023/09/09 06:35:28;;;;;;;6.45;4.75;;;43.40;29.80;;;;;;5077788;28;20027;-70
2023/09/09 06:37:56;;;;;;;6.25;4.50;;;43.80;29.50;;;;;;5077776;28;20025;-69
2023/09/09 06:40:22;;;;;;;6.20;4.63;;;44.20;29.20;;;;;;5077751;28;20104;-70
2023/09/09 06:42:48;;;;;;;5.13;4.50;;;44.50;29.00;;;;;;5077790;28;20071;-69
2023/09/09 06:45:15;;;;;;;5.90;4.43;;;44.90;28.60;;;;;;5077903;28;20048;-67
2023/09/09 06:47:42;;;;;;;6.57;4.55;;;45.30;28.00;;;;;;5077624;28;20047;-68
2023/09/09 06:50:08;;;;;;;10.00;4.57;;;45.60;27.50;;;;;;5078098;28;20017;-68
2023/09/09 06:52:42;;;;;;;7.63;4.50;;;45.90;27.30;;;;;;5077977;28;20032;-69
2023/09/09 06:55:11;;;;;;;12.00;4.63;;;46.10;27.00;;;;;;5078323;28;20016;-68
2023/09/09 06:57:46;;;;;;;12.52;4.35;;;46.40;26.80;;;;;;5078152;28;20047;-68
2023/09/09 07:00:13;;;;;;;8.75;4.90;;;46.50;26.10;;;;;;5059984;28;20085;-68
2023/09/09 07:02:40;;;;;;;7.75;4.88;;;46.70;26.50;;;;;;5060012;28;20470;-68
2023/09/09 07:05:07;;;;;;;5.80;4.63;;;46.90;26.20;;;;;;5077596;28;20457;-69
2023/09/09 07:07:33;;;;;;;7.47;4.30;;;47.00;25.90;;;;;;5077421;28;20126;-69
2023/09/09 07:10:00;;;;;;;8.15;4.60;;;47.00;26.00;;;;;;5077438;28;20163;-69
2023/09/09 07:12:26;;;;;;;7.70;4.72;;;47.00;26.00;;;;;;5059733;28;20040;-69
2023/09/09 07:14:53;;;;;;;6.95;4.93;;;47.00;25.70;;;;;;5077298;28;20074;-69
2023/09/09 07:17:19;;;;;;;6.15;4.50;;;47.00;25.70;;;;;;5078045;28;20024;-69
2023/09/09 07:19:45;;;;;;;6.03;4.53;;;46.90;25.90;;;;;;5077304;28;20112;-69
2023/09/09 07:22:11;;;;;;;4.97;4.18;;;46.90;25.90;;;;;;5077764;28;20382;-68
2023/09/09 07:24:43;;;;;;;7.22;4.40;;;46.80;25.90;;;;;;5077239;28;20025;-69
2023/09/09 07:27:08;;;;;;;6.85;4.55;;;46.70;25.10;;;;;;5077143;28;20078;-69
2023/09/09 07:29:34;;;;;;;6.68;4.93;;;46.50;25.30;;;;;;5077393;28;20025;-69
2023/09/09 07:32:00;;;;;;;7.55;5.05;;;46.20;25.40;;;;;;5077117;28;20059;-69
2023/09/09 07:34:26;;;;;;;7.30;5.20;;;45.50;25.70;;;;;;5059291;28;20078;-69
2023/09/09 07:36:52;;;;;;;7.07;5.18;;;44.20;26.40;;;;;;5077364;28;20059;-69
2023/09/09 07:39:20;;;;;;;8.70;4.80;;;42.60;27.50;;;;;;5076937;28;20021;-68
2023/09/09 07:41:47;;;;;;;7.55;4.97;;;41.10;28.70;;;;;;5076902;28;20090;-69
2023/09/09 07:44:13;;;;;;;8.02;4.97;;;39.70;30.20;;;;;;5059104;28;20035;-69
2023/09/09 07:46:38;;;;;;;8.95;4.95;;;38.70;31.60;;;;;;5076932;28;20028;-68
2023/09/09 07:49:04;;;;;;;6.68;4.95;;;37.80;32.50;;;;;;5076732;28;20357;-69
2023/09/09 07:51:30;;;;;;;6.45;4.82;;;37.20;33.30;;;;;;5059095;28;20035;-69
2023/09/09 07:53:56;;;;;;;7.35;5.07;;;36.50;33.80;;;;;;5076566;28;20450;-68
2023/09/09 07:56:22;;;;;;;6.97;4.80;;;36.00;34.50;;;;;;5076851;28;20028;-69
2023/09/09 07:58:49;;;;;;;8.25;5.25;;;35.60;35.20;;;;;;5058882;28;20444;-68
2023/09/09 08:01:15;;;;;;;7.03;5.28;;;35.30;35.50;;;;;;5076440;28;20037;-68
2023/09/09 08:03:44;;;;;;;6.30;4.80;;;35.00;35.60;;;;;;5076454;28;20037;-69
2023/09/09 08:06:11;;;;;;;7.53;4.93;;;34.80;35.90;;;;;;5076938;28;20029;-68
2023/09/09 08:08:37;;;;;;;7.63;4.80;;;34.60;36.40;;;;;;5076065;28;20040;-68
2023/09/09 08:11:06;;;;;;;6.75;4.32;;;34.50;36.60;;;;;;5058700;28;20043;-69
2023/09/09 08:13:32;;;;;;;6.72;5.25;;;34.50;36.10;;;;;;5076440;28;20036;-68
2023/09/09 08:15:58;;;;;;;6.28;4.72;;;34.40;35.70;;;;;;5059069;28;20393;-68
2023/09/09 08:18:24;;;;;;;7.65;4.47;;;34.30;35.90;;;;;;5058426;28;20028;-68
2023/09/09 08:20:51;;;;;;;5.63;4.65;;;34.20;36.30;;;;;;5058710;28;20354;-68
2023/09/09 08:23:18;;;;;;;6.15;4.45;;;34.20;36.20;;;;;;5076329;28;20407;-68
2023/09/09 08:25:44;;;;;;;6.30;4.68;;;34.20;35.60;;;;;;5058381;28;20032;-68
2023/09/09 08:28:11;;;;;;;6.63;4.40;;;34.20;35.20;;;;;;5076427;28;20039;-68
2023/09/09 08:30:37;;;;;;;7.20;4.80;;;34.10;34.10;;;;;;5076155;28;20346;-68
2023/09/09 08:33:03;;;;;;;6.45;4.88;;;33.90;33.90;;;;;;5058334;28;20029;-68
2023/09/09 08:35:32;;;;;;;6.47;4.80;;;33.50;33.90;;;;;;5076099;28;20052;-68
2023/09/09 08:38:00;;;;;;;6.07;4.88;;;33.00;34.10;;;;;;5075710;28;20032;-68
2023/09/09 08:40:26;;;;;;;8.32;4.88;;;32.90;34.90;;;;;;5075995;28;20021;-68
2023/09/09 08:43:14;;;;;;;7.00;5.00;;;32.90;35.20;;;;;;5075945;28;20031;-68
2023/09/09 08:45:48;;;;;;;7.90;4.65;;;32.40;33.10;;;;;;5075661;28;20051;-68
2023/09/09 08:48:20;;;;;;;8.85;5.32;;;32.10;35.00;;;;;;5075675;28;20028;-68
2023/09/09 08:50:50;;;;;;;8.82;5.80;;;31.90;35.20;;;;;;5075548;28;20017;-68
2023/09/09 08:53:18;;;;;;;7.95;5.40;;;31.90;35.70;;;;;;5075770;28;20124;-68
2023/09/09 08:55:44;;;;;;;8.02;4.82;;;31.90;35.40;;;;;;5075620;28;20016;-68
2023/09/09 08:58:11;;;;;;;6.57;4.78;;;31.90;35.40;;;;;;5075444;28;20020;-68
2023/09/09 09:00:40;;;;;;;8.77;5.05;;;31.90;35.60;;;;;;5057757;28;20458;-68
2023/09/09 09:03:06;;;;;;;8.43;5.40;;;32.00;35.60;;;;;;5075411;28;20445;-68
2023/09/09 09:05:33;;;;;;;7.85;5.00;;;32.00;36.10;;;;;;5075921;28;20032;-68
2023/09/09 09:08:01;;;;;;;5.88;4.68;;;31.90;35.90;;;;;;5054198;28;20474;-68
2023/09/09 09:10:27;;;;;;;8.20;4.88;;;31.90;35.40;;;;;;5055354;28;20016;-68
2023/09/09 09:12:53;;;;;;;7.97;5.10;;;31.70;35.50;;;;;;5055485;28;20104;-68
2023/09/09 09:15:24;;;;;;;11.07;5.40;;;31.60;35.90;;;;;;5055827;28;20091;-68
2023/09/09 09:17:51;;;;;;;10.60;5.68;;;31.50;35.80;;;;;;5055169;28;20039;-68
2023/09/09 09:20:31;;;;;;;9.10;5.50;;;31.40;35.20;;;;;;5054504;28;20076;-68
2023/09/09 09:23:02;;;;;;;12.43;5.13;;;31.10;35.30;;;;;;5055507;28;20040;-68
2023/09/09 09:25:34;;;;;;;8.70;5.15;;;31.00;36.90;;;;;;5054194;28;20027;-68
2023/09/09 09:28:02;;;;;;;8.57;5.70;;;31.00;37.10;;;;;;5055229;28;20025;-68
2023/09/09 09:30:29;;;;;;;8.90;5.28;;;31.00;37.20;;;;;;5055399;28;20260;-68
2023/09/09 09:32:56;;;;;;;7.35;5.03;;;31.00;37.40;;;;;;5054062;28;20050;-68
2023/09/09 09:35:26;;;;;;;7.30;5.20;;;31.00;37.50;;;;;;5055583;28;20032;-68
2023/09/09 09:37:59;;;;;;;6.68;5.03;;;31.20;37.20;;;;;;5055195;28;20048;-68
2023/09/09 09:40:30;;;;;;;7.82;5.22;;;31.20;37.00;;;;;;5054068;28;20507;-68
2023/09/09 09:42:56;;;;;;;8.20;5.28;;;31.10;36.60;;;;;;5055294;28;20028;-68
2023/09/09 09:45:24;;;;;;;10.75;5.57;;;31.20;36.40;;;;;;5054995;28;20030;-68
2023/09/09 09:47:51;;;;;;;7.78;5.55;;;31.30;36.00;;;;;;5053954;28;20377;-68
2023/09/09 09:50:19;;;;;;;8.00;5.10;;;31.40;36.10;;;;;;5054953;28;20033;-68
2023/09/09 09:53:05;;;;;;;7.85;5.22;;;31.30;36.50;;;;;;5053876;28;20025;-68
2023/09/09 09:55:34;;;;;;;7.57;5.10;;;31.30;36.80;;;;;;5053951;28;20031;-68
2023/09/09 09:58:07;;;;;;;7.50;5.60;;;31.20;36.80;;;;;;5055335;28;20044;-68
2023/09/09 10:00:33;;;;;;;;;;;31.20;37.00;;;;;;5055269;28;20082;-68
2023/09/09 10:03:01;;;;;;;7.90;5.20;;;31.20;37.10;;;;;;5054868;28;19909;-68
2023/09/09 10:05:29;;;;;;;8.02;5.35;;;31.20;37.00;;;;;;5054787;28;20032;-68
2023/09/09 10:08:22;;;;;;;9.57;5.18;;;31.20;37.20;;;;;;5061971;28;20378;-68
2023/09/09 10:10:52;;;;;;;;;;;31.10;36.60;;;;;;5079031;28;20150;-67
2023/09/09 10:13:45;;;;;;;7.38;5.30;;;31.10;37.20;;;;;;5078795;28;19920;-68
2023/09/09 10:16:12;;;;;;;;;;;31.00;37.70;;;;;;5063869;28;20033;-68
2023/09/09 10:18:39;;;;;;;8.02;5.15;;;31.00;36.00;;;;;;5078418;28;19947;-68
2023/09/09 10:21:07;;;;;;;8.75;4.95;;;31.10;37.30;;;;;;5061203;28;20040;-68
2023/09/09 10:23:33;;;;;;;7.07;4.80;;;31.20;37.00;;;;;;5061065;28;20024;-68
2023/09/09 10:26:01;;;;;;;7.40;4.63;;;31.20;36.70;;;;;;5078539;28;20021;-68
2023/09/09 10:28:28;;;;;;;7.50;4.97;;;31.20;35.20;;;;;;5078226;28;20024;-68
2023/09/09 10:30:55;;;;;;;5.70;4.50;;;31.20;35.10;;;;;;5060639;28;20450;-68
2023/09/09 10:33:23;;;;;;;12.55;4.88;;;31.20;35.60;;;;;;5078165;28;20050;-68
2023/09/09 10:35:50;;;;;;;6.10;4.75;;;31.10;36.30;;;;;;5078378;28;20028;-68
2023/09/09 10:38:17;;;;;;;8.57;5.18;;;31.20;36.00;;;;;;5060411;28;20361;-68
2023/09/09 10:40:47;;;;;;;7.60;5.32;;;31.20;35.80;;;;;;5078055;28;20099;-67
2023/09/09 10:43:14;;;;;;;10.02;5.07;;;31.20;35.60;;;;;;5077997;28;20024;-70
2023/09/09 10:45:43;;;;;;;12.35;5.20;;;31.20;35.70;;;;;;5078542;28;20132;-68
2023/09/09 10:48:12;;;;;;;8.43;5.10;;;31.00;35.80;;;;;;5060207;28;20032;-68
2023/09/09 10:50:45;;;;;;;9.02;4.80;;;31.00;35.60;;;;;;5077894;28;20035;-68
2023/09/09 10:53:22;;;;;;;10.40;5.43;;;31.10;35.70;;;;;;5077787;28;20115;-68
2023/09/09 10:55:52;;;;;;;7.47;5.05;;;31.20;36.80;;;;;;5077720;28;20029;-68
2023/09/09 10:58:19;;;;;;;6.10;4.85;;;31.20;36.50;;;;;;5077668;28;20031;-68
2023/09/09 11:00:47;;;;;;;9.23;5.30;;;31.20;36.60;;;;;;5078222;28;20020;-68
2023/09/09 11:03:22;;;;;;;8.25;5.43;;;31.20;36.70;;;;;;5077836;28;20016;-68
2023/09/09 11:06:10;;;;;;;7.75;5.18;;;31.30;37.00;;;;;;5060083;28;20095;-68
2023/09/09 11:08:42;;;;;;;7.70;4.85;;;31.30;36.20;;;;;;5077152;28;20448;-68
2023/09/09 11:11:12;;;;;;;6.17;4.80;;;31.20;35.00;;;;;;5059811;28;20062;-68
2023/09/09 11:14:13;;;;;;;7.82;5.20;;;31.10;35.50;;;;;;5077326;28;20039;-68
2023/09/09 11:16:41;;;;;;;6.38;4.88;;;31.00;36.20;;;;;;5077868;28;20058;-68
2023/09/09 11:19:10;;;;;;;10.15;5.65;;;31.10;36.40;;;;;;5059665;28;20479;-68
2023/09/09 11:21:50;;;;;;;7.32;4.78;;;31.20;36.70;;;;;;5059660;28;20111;-68
2023/09/09 11:24:17;;;;;;;8.80;5.28;;;31.20;36.40;;;;;;5077773;28;20036;-68
2023/09/09 11:26:46;;;;;;;8.77;5.25;;;31.20;36.50;;;;;;5077366;28;20029;-67
2023/09/09 11:29:13;;;;;;;8.88;5.10;;;31.30;36.40;;;;;;5077395;28;20021;-68
2023/09/09 11:31:39;;;;;;;6.97;5.05;;;31.40;36.20;;;;;;5077639;28;20028;-68
2023/09/09 11:34:05;;;;;;;8.57;5.20;;;31.50;36.50;;;;;;5077301;28;20066;-68
2023/09/09 11:36:32;;;;;;;6.07;4.90;;;31.40;36.00;;;;;;5077434;28;20029;-68
2023/09/09 11:39:00;;;;;;;8.00;5.10;;;31.40;36.00;;;;;;5077026;28;20062;-68
2023/09/09 11:41:28;;;;;;;7.53;4.95;;;31.30;36.00;;;;;;5076958;28;20024;-68
2023/09/09 11:44:08;;;;;;;6.32;4.75;;;31.30;36.30;;;;;;5076789;28;20523;-68
2023/09/09 11:46:42;;;;;;;7.18;4.70;;;31.20;35.90;;;;;;5076899;28;20119;-68
2023/09/09 11:49:10;;;;;;;5.72;4.60;;;31.30;35.90;;;;;;5059297;28;20499;-68
2023/09/09 11:51:36;;;;;;;9.27;5.25;;;31.40;36.00;;;;;;5076981;28;20031;-68
2023/09/09 11:54:04;;;;;;;7.72;5.32;;;31.50;35.90;;;;;;5077136;28;20032;-68
2023/09/09 11:56:33;;;;;;;8.05;5.00;;;31.50;35.80;;;;;;5076531;28;20070;-68
2023/09/09 11:58:59;;;;;;;9.40;5.13;;;31.50;35.60;;;;;;5058895;28;20107;-68
2023/09/09 12:01:25;;;;;;;7.35;5.00;;;31.40;35.60;;;;;;5059207;28;20073;-68
2023/09/09 12:04:03;;;;;;;6.35;5.05;;;31.40;35.40;;;;;;5076447;28;20097;-68
2023/09/09 12:06:29;;;;;;;7.45;5.30;;;31.30;35.50;;;;;;5076609;28;20095;-67
2023/09/09 12:08:55;;;;;;;8.30;4.80;;;31.30;35.60;;;;;;5076191;28;20413;-68
2023/09/09 12:11:23;;;;;;;7.03;5.15;;;31.30;35.50;;;;;;5042133;28;20032;-68
2023/09/09 12:13:49;;;;;;;7.47;4.47;;;31.30;35.40;;;;;;5076280;28;20103;-68
2023/09/09 12:16:16;;;;;;;7.97;4.88;;;31.40;35.50;;;;;;5076082;28;20039;-68
2023/09/09 12:18:53;;;;;;;6.93;5.13;;;31.40;35.60;;;;;;5042125;28;20043;-68
2023/09/09 12:21:20;;;;;;;7.25;4.85;;;31.40;35.20;;;;;;5076391;28;20393;-68
2023/09/09 12:23:58;;;;;;;7.90;4.85;;;31.40;35.80;;;;;;5076013;28;20028;-68
2023/09/09 12:26:24;;;;;;;8.65;4.97;;;31.40;35.50;;;;;;5076319;28;20025;-68
2023/09/09 12:29:09;;;;;;;8.30;5.32;;;31.40;35.00;;;;;;5075929;28;20047;-68
2023/09/09 12:31:56;;;;;;;6.82;4.78;;;31.40;34.90;;;;;;5075450;28;20043;-68
2023/09/09 12:34:24;;;;;;;9.10;4.97;;;31.40;35.00;;;;;;5075717;28;20123;-68
2023/09/09 12:36:55;;;;;;;7.10;4.85;;;31.40;35.00;;;;;;5076198;28;20040;-68
2023/09/09 12:39:26;;;;;;;9.68;5.03;;;31.30;34.70;;;;;;5076366;28;20032;-67
2023/09/09 12:42:04;;;;;;;8.45;5.30;;;31.20;35.30;;;;;;5076270;28;20466;-68
2023/09/09 12:44:32;;;;;;;7.30;4.60;;;31.00;34.50;;;;;;5075704;28;20439;-67
2023/09/09 12:47:03;;;;;;;8.15;5.65;;;31.00;35.10;;;;;;5075583;28;20120;-67
2023/09/09 12:49:30;;;;;;;8.63;5.15;;;31.00;35.00;;;;;;5076180;28;20028;-68